sensor_id;sensor_type;location;lat;lon;timestamp;temperature;humidity
36450;DHT22;22475;51.390;7.180;2022-12-18T00:02:12;6.20;82.40
36450;DHT22;22475;51.390;7.180;2022-12-18T00:04:39;6.20;82.50
36450;DHT22;22475;51.390;7.180;2022-12-18T00:07:07;6.20;82.50
36450;DHT22;22475;51.390;7.180;2022-12-18T00:09:34;6.30;82.50
36450;DHT22;22475;51.390;7.180;2022-12-18T00:12:01;6.30;82.50
36450;DHT22;22475;51.390;7.180;2022-12-18T00:14:27;6.30;82.40
36450;DHT22;22475;51.390;7.180;2022-12-18T00:16:54;6.30;82.40
36450;DHT22;22475;51.390;7.180;2022-12-18T00:19:21;6.40;82.40
36450;DHT22;22475;51.390;7.180;2022-12-18T00:21:47;6.40;82.40
36450;DHT22;22475;51.390;7.180;2022-12-18T00:24:15;6.40;82.30
36450;DHT22;22475;51.390;7.180;2022-12-18T00:26:42;6.40;82.30
36450;DHT22;22475;51.390;7.180;2022-12-18T00:29:12;6.40;82.30
36450;DHT22;22475;51.390;7.180;2022-12-18T00:31:40;6.40;82.30
36450;DHT22;22475;51.390;7.180;2022-12-18T00:34:10;6.40;82.30
36450;DHT22;22475;51.390;7.180;2022-12-18T00:36:38;6.40;82.30
36450;DHT22;22475;51.390;7.180;2022-12-18T00:39:05;6.40;82.30
36450;DHT22;22475;51.390;7.180;2022-12-18T00:41:33;6.40;82.30
36450;DHT22;22475;51.390;7.180;2022-12-18T00:44:18;6.40;82.30
36450;DHT22;22475;51.390;7.180;2022-12-18T00:46:46;6.40;82.40
36450;DHT22;22475;51.390;7.180;2022-12-18T00:49:14;6.40;82.40
36450;DHT22;22475;51.390;7.180;2022-12-18T00:51:41;6.50;82.40
36450;DHT22;22475;51.390;7.180;2022-12-18T00:54:07;6.50;82.50
36450;DHT22;22475;51.390;7.180;2022-12-18T00:56:36;6.50;82.40
36450;DHT22;22475;51.390;7.180;2022-12-18T00:59:03;6.50;82.50
36450;DHT22;22475;51.390;7.180;2022-12-18T01:01:31;6.50;82.50
36450;DHT22;22475;51.390;7.180;2022-12-18T01:03:58;6.50;82.40
36450;DHT22;22475;51.390;7.180;2022-12-18T01:06:25;6.60;82.50
36450;DHT22;22475;51.390;7.180;2022-12-18T01:08:52;6.60;82.40
36450;DHT22;22475;51.390;7.180;2022-12-18T01:11:20;6.60;82.40
36450;DHT22;22475;51.390;7.180;2022-12-18T01:13:48;6.60;82.40
36450;DHT22;22475;51.390;7.180;2022-12-18T01:16:16;6.60;82.40
36450;DHT22;22475;51.390;7.180;2022-12-18T01:18:44;6.60;82.40
36450;DHT22;22475;51.390;7.180;2022-12-18T01:21:16;6.70;82.40
36450;DHT22;22475;51.390;7.180;2022-12-18T01:23:46;6.70;82.40
36450;DHT22;22475;51.390;7.180;2022-12-18T01:26:14;6.70;82.40
36450;DHT22;22475;51.390;7.180;2022-12-18T01:28:42;6.70;82.50
36450;DHT22;22475;51.390;7.180;2022-12-18T01:31:13;6.70;82.40
36450;DHT22;22475;51.390;7.180;2022-12-18T01:33:40;6.70;82.40
36450;DHT22;22475;51.390;7.180;2022-12-18T01:36:08;6.70;82.40
36450;DHT22;22475;51.390;7.180;2022-12-18T01:38:34;6.70;82.40
36450;DHT22;22475;51.390;7.180;2022-12-18T01:41:02;6.70;82.40
36450;DHT22;22475;51.390;7.180;2022-12-18T01:43:45;6.70;82.30
36450;DHT22;22475;51.390;7.180;2022-12-18T01:46:13;6.70;82.30
36450;DHT22;22475;51.390;7.180;2022-12-18T01:48:41;6.70;82.30
36450;DHT22;22475;51.390;7.180;2022-12-18T01:51:10;6.70;82.20
36450;DHT22;22475;51.390;7.180;2022-12-18T01:53:39;6.70;82.20
36450;DHT22;22475;51.390;7.180;2022-12-18T01:56:07;6.80;82.30
36450;DHT22;22475;51.390;7.180;2022-12-18T01:58:39;6.80;82.30
36450;DHT22;22475;51.390;7.180;2022-12-18T02:01:08;6.80;82.30
36450;DHT22;22475;51.390;7.180;2022-12-18T02:03:37;6.80;82.30
36450;DHT22;22475;51.390;7.180;2022-12-18T02:06:10;6.80;82.30
36450;DHT22;22475;51.390;7.180;2022-12-18T02:08:43;6.80;82.20
36450;DHT22;22475;51.390;7.180;2022-12-18T02:11:20;6.80;82.30
36450;DHT22;22475;51.390;7.180;2022-12-18T02:13:53;6.80;82.30
36450;DHT22;22475;51.390;7.180;2022-12-18T02:16:27;6.80;82.30
36450;DHT22;22475;51.390;7.180;2022-12-18T02:19:00;6.80;82.20
36450;DHT22;22475;51.390;7.180;2022-12-18T02:21:36;6.90;82.30
36450;DHT22;22475;51.390;7.180;2022-12-18T02:24:18;6.90;82.20
36450;DHT22;22475;51.390;7.180;2022-12-18T02:26:54;6.80;82.10
36450;DHT22;22475;51.390;7.180;2022-12-18T02:29:25;6.80;82.10
36450;DHT22;22475;51.390;7.180;2022-12-18T02:31:54;6.90;82.20
36450;DHT22;22475;51.390;7.180;2022-12-18T02:34:30;6.90;82.20
36450;DHT22;22475;51.390;7.180;2022-12-18T02:36:59;6.90;82.20
36450;DHT22;22475;51.390;7.180;2022-12-18T02:39:29;6.90;82.20
36450;DHT22;22475;51.390;7.180;2022-12-18T02:41:59;6.90;82.10
36450;DHT22;22475;51.390;7.180;2022-12-18T02:44:27;6.90;82.10
36450;DHT22;22475;51.390;7.180;2022-12-18T02:46:54;6.90;82.10
36450;DHT22;22475;51.390;7.180;2022-12-18T02:49:28;6.90;82.10
36450;DHT22;22475;51.390;7.180;2022-12-18T02:52:03;6.90;82.10
36450;DHT22;22475;51.390;7.180;2022-12-18T02:54:40;7.00;82.10
36450;DHT22;22475;51.390;7.180;2022-12-18T02:57:16;7.00;82.00
36450;DHT22;22475;51.390;7.180;2022-12-18T02:59:52;7.00;82.00
36450;DHT22;22475;51.390;7.180;2022-12-18T03:02:26;7.00;82.00
36450;DHT22;22475;51.390;7.180;2022-12-18T03:05:00;7.00;81.90
36450;DHT22;22475;51.390;7.180;2022-12-18T03:07:34;7.00;81.90
36450;DHT22;22475;51.390;7.180;2022-12-18T03:10:06;6.90;81.70
36450;DHT22;22475;51.390;7.180;2022-12-18T03:12:39;7.00;81.80
36450;DHT22;22475;51.390;7.180;2022-12-18T03:15:11;7.00;81.70
36450;DHT22;22475;51.390;7.180;2022-12-18T03:17:42;7.00;81.80
36450;DHT22;22475;51.390;7.180;2022-12-18T03:20:14;7.00;81.70
36450;DHT22;22475;51.390;7.180;2022-12-18T03:22:43;7.00;81.70
36450;DHT22;22475;51.390;7.180;2022-12-18T03:25:14;7.00;81.70
36450;DHT22;22475;51.390;7.180;2022-12-18T03:27:46;7.00;81.70
36450;DHT22;22475;51.390;7.180;2022-12-18T03:30:14;7.00;81.60
36450;DHT22;22475;51.390;7.180;2022-12-18T03:32:44;7.00;81.70
36450;DHT22;22475;51.390;7.180;2022-12-18T03:35:17;6.90;81.60
36450;DHT22;22475;51.390;7.180;2022-12-18T03:37:44;7.00;81.60
36450;DHT22;22475;51.390;7.180;2022-12-18T03:40:11;7.00;81.50
36450;DHT22;22475;51.390;7.180;2022-12-18T03:42:45;7.00;81.50
36450;DHT22;22475;51.390;7.180;2022-12-18T03:45:19;7.00;81.50
36450;DHT22;22475;51.390;7.180;2022-12-18T03:47:57;7.00;81.40
36450;DHT22;22475;51.390;7.180;2022-12-18T03:50:30;7.00;81.30
36450;DHT22;22475;51.390;7.180;2022-12-18T03:53:03;7.00;81.40
36450;DHT22;22475;51.390;7.180;2022-12-18T03:55:34;7.00;81.30
36450;DHT22;22475;51.390;7.180;2022-12-18T03:58:05;7.00;81.30
36450;DHT22;22475;51.390;7.180;2022-12-18T04:00:33;7.00;81.30
36450;DHT22;22475;51.390;7.180;2022-12-18T04:03:01;7.00;81.30
36450;DHT22;22475;51.390;7.180;2022-12-18T04:05:29;7.00;81.30
36450;DHT22;22475;51.390;7.180;2022-12-18T04:07:57;7.00;81.20
36450;DHT22;22475;51.390;7.180;2022-12-18T04:10:24;7.00;82.00
36450;DHT22;22475;51.390;7.180;2022-12-18T04:12:51;7.00;81.10
36450;DHT22;22475;51.390;7.180;2022-12-18T04:15:23;7.00;81.10
36450;DHT22;22475;51.390;7.180;2022-12-18T04:17:50;7.00;81.10
36450;DHT22;22475;51.390;7.180;2022-12-18T04:20:17;7.00;81.10
36450;DHT22;22475;51.390;7.180;2022-12-18T04:22:44;7.00;81.10
36450;DHT22;22475;51.390;7.180;2022-12-18T04:25:11;7.00;81.10
36450;DHT22;22475;51.390;7.180;2022-12-18T04:27:38;7.00;81.10
36450;DHT22;22475;51.390;7.180;2022-12-18T04:30:06;7.00;81.10
36450;DHT22;22475;51.390;7.180;2022-12-18T04:32:35;7.00;81.10
36450;DHT22;22475;51.390;7.180;2022-12-18T04:35:02;7.00;81.00
36450;DHT22;22475;51.390;7.180;2022-12-18T04:37:29;7.00;81.00
36450;DHT22;22475;51.390;7.180;2022-12-18T04:39:56;7.00;81.00
36450;DHT22;22475;51.390;7.180;2022-12-18T04:42:23;7.00;80.90
36450;DHT22;22475;51.390;7.180;2022-12-18T04:44:50;6.90;80.90
36450;DHT22;22475;51.390;7.180;2022-12-18T04:47:16;6.90;80.90
36450;DHT22;22475;51.390;7.180;2022-12-18T04:49:44;6.90;80.90
36450;DHT22;22475;51.390;7.180;2022-12-18T04:52:11;7.00;81.00
36450;DHT22;22475;51.390;7.180;2022-12-18T04:54:38;6.90;80.90
36450;DHT22;22475;51.390;7.180;2022-12-18T04:57:04;6.90;80.90
36450;DHT22;22475;51.390;7.180;2022-12-18T04:59:31;6.90;80.90
36450;DHT22;22475;51.390;7.180;2022-12-18T05:01:58;6.90;80.90
36450;DHT22;22475;51.390;7.180;2022-12-18T05:04:25;6.90;81.70
36450;DHT22;22475;51.390;7.180;2022-12-18T05:06:53;6.90;81.00
36450;DHT22;22475;51.390;7.180;2022-12-18T05:09:20;6.90;81.00
36450;DHT22;22475;51.390;7.180;2022-12-18T05:11:47;6.80;81.00
36450;DHT22;22475;51.390;7.180;2022-12-18T05:14:14;6.90;81.00
36450;DHT22;22475;51.390;7.180;2022-12-18T05:16:40;6.90;81.80
36450;DHT22;22475;51.390;7.180;2022-12-18T05:19:07;6.90;81.00
36450;DHT22;22475;51.390;7.180;2022-12-18T05:21:34;6.80;80.90
36450;DHT22;22475;51.390;7.180;2022-12-18T05:24:02;6.90;81.00
36450;DHT22;22475;51.390;7.180;2022-12-18T05:26:29;6.90;81.00
36450;DHT22;22475;51.390;7.180;2022-12-18T05:28:56;6.90;81.00
36450;DHT22;22475;51.390;7.180;2022-12-18T05:31:23;6.90;80.90
36450;DHT22;22475;51.390;7.180;2022-12-18T05:33:49;6.90;80.90
36450;DHT22;22475;51.390;7.180;2022-12-18T05:36:16;6.90;80.90
36450;DHT22;22475;51.390;7.180;2022-12-18T05:38:43;6.90;80.90
36450;DHT22;22475;51.390;7.180;2022-12-18T05:41:11;6.80;80.80
36450;DHT22;22475;51.390;7.180;2022-12-18T05:43:40;6.90;80.90
36450;DHT22;22475;51.390;7.180;2022-12-18T05:46:08;6.80;80.80
36450;DHT22;22475;51.390;7.180;2022-12-18T05:48:35;6.80;80.80
36450;DHT22;22475;51.390;7.180;2022-12-18T05:51:06;6.80;80.80
36450;DHT22;22475;51.390;7.180;2022-12-18T05:53:33;6.80;80.80
36450;DHT22;22475;51.390;7.180;2022-12-18T05:56:01;6.80;80.80
36450;DHT22;22475;51.390;7.180;2022-12-18T05:58:30;6.80;80.70
36450;DHT22;22475;51.390;7.180;2022-12-18T06:00:58;6.80;80.70
36450;DHT22;22475;51.390;7.180;2022-12-18T06:03:31;6.80;80.70
36450;DHT22;22475;51.390;7.180;2022-12-18T06:05:58;6.70;80.70
36450;DHT22;22475;51.390;7.180;2022-12-18T06:08:25;6.70;80.70
36450;DHT22;22475;51.390;7.180;2022-12-18T06:10:52;6.70;80.60
36450;DHT22;22475;51.390;7.180;2022-12-18T06:13:19;6.70;80.60
36450;DHT22;22475;51.390;7.180;2022-12-18T06:15:48;6.70;80.60
36450;DHT22;22475;51.390;7.180;2022-12-18T06:18:14;6.70;80.70
36450;DHT22;22475;51.390;7.180;2022-12-18T06:20:41;6.70;80.60
36450;DHT22;22475;51.390;7.180;2022-12-18T06:23:08;6.70;80.60
36450;DHT22;22475;51.390;7.180;2022-12-18T06:25:38;6.70;80.60
36450;DHT22;22475;51.390;7.180;2022-12-18T06:28:05;6.60;80.60
36450;DHT22;22475;51.390;7.180;2022-12-18T06:30:32;6.60;80.60
36450;DHT22;22475;51.390;7.180;2022-12-18T06:33:00;6.60;80.50
36450;DHT22;22475;51.390;7.180;2022-12-18T06:35:27;6.60;80.50
36450;DHT22;22475;51.390;7.180;2022-12-18T06:37:53;6.60;80.60
36450;DHT22;22475;51.390;7.180;2022-12-18T06:40:20;6.60;80.50
36450;DHT22;22475;51.390;7.180;2022-12-18T06:42:47;6.60;80.50
36450;DHT22;22475;51.390;7.180;2022-12-18T06:45:14;6.50;80.50
36450;DHT22;22475;51.390;7.180;2022-12-18T06:47:41;6.50;80.40
36450;DHT22;22475;51.390;7.180;2022-12-18T06:50:09;6.50;80.40
36450;DHT22;22475;51.390;7.180;2022-12-18T06:52:36;6.50;80.50
36450;DHT22;22475;51.390;7.180;2022-12-18T06:55:05;6.50;80.50
36450;DHT22;22475;51.390;7.180;2022-12-18T06:57:34;6.50;80.50
36450;DHT22;22475;51.390;7.180;2022-12-18T07:00:01;6.50;80.50
36450;DHT22;22475;51.390;7.180;2022-12-18T07:02:28;6.50;80.50
36450;DHT22;22475;51.390;7.180;2022-12-18T07:04:55;6.50;80.60
36450;DHT22;22475;51.390;7.180;2022-12-18T07:07:23;6.50;80.50
36450;DHT22;22475;51.390;7.180;2022-12-18T07:09:50;6.50;80.50
36450;DHT22;22475;51.390;7.180;2022-12-18T07:12:17;6.50;80.50
36450;DHT22;22475;51.390;7.180;2022-12-18T07:14:44;6.50;80.40
36450;DHT22;22475;51.390;7.180;2022-12-18T07:17:10;6.40;80.40
36450;DHT22;22475;51.390;7.180;2022-12-18T07:19:37;6.50;80.50
36450;DHT22;22475;51.390;7.180;2022-12-18T07:22:04;6.50;80.50
36450;DHT22;22475;51.390;7.180;2022-12-18T07:24:33;6.40;80.50
36450;DHT22;22475;51.390;7.180;2022-12-18T07:27:00;6.50;80.50
36450;DHT22;22475;51.390;7.180;2022-12-18T07:29:27;6.50;80.50
36450;DHT22;22475;51.390;7.180;2022-12-18T07:31:54;6.50;80.50
36450;DHT22;22475;51.390;7.180;2022-12-18T07:34:21;6.50;80.50
36450;DHT22;22475;51.390;7.180;2022-12-18T07:36:47;6.50;80.50
36450;DHT22;22475;51.390;7.180;2022-12-18T07:39:14;6.50;80.50
36450;DHT22;22475;51.390;7.180;2022-12-18T07:41:42;6.50;80.40
36450;DHT22;22475;51.390;7.180;2022-12-18T07:44:29;6.50;80.40
36450;DHT22;22475;51.390;7.180;2022-12-18T07:46:56;6.50;80.40
36450;DHT22;22475;51.390;7.180;2022-12-18T07:49:23;6.50;80.40
36450;DHT22;22475;51.390;7.180;2022-12-18T07:51:49;6.50;80.40
36450;DHT22;22475;51.390;7.180;2022-12-18T07:54:17;6.50;81.10
36450;DHT22;22475;51.390;7.180;2022-12-18T07:56:45;6.50;80.30
36450;DHT22;22475;51.390;7.180;2022-12-18T07:59:11;6.50;80.40
36450;DHT22;22475;51.390;7.180;2022-12-18T08:01:38;6.50;80.40
36450;DHT22;22475;51.390;7.180;2022-12-18T08:04:05;6.50;80.30
36450;DHT22;22475;51.390;7.180;2022-12-18T08:06:31;6.50;80.40
36450;DHT22;22475;51.390;7.180;2022-12-18T08:08:58;6.50;81.10
36450;DHT22;22475;51.390;7.180;2022-12-18T08:11:27;6.60;80.40
36450;DHT22;22475;51.390;7.180;2022-12-18T08:13:55;6.60;80.40
36450;DHT22;22475;51.390;7.180;2022-12-18T08:16:22;6.60;80.40
36450;DHT22;22475;51.390;7.180;2022-12-18T08:18:51;6.60;80.30
36450;DHT22;22475;51.390;7.180;2022-12-18T08:21:20;6.60;80.30
36450;DHT22;22475;51.390;7.180;2022-12-18T08:23:48;6.70;80.20
36450;DHT22;22475;51.390;7.180;2022-12-18T08:26:15;6.70;80.20
36450;DHT22;22475;51.390;7.180;2022-12-18T08:28:42;6.70;80.10
36450;DHT22;22475;51.390;7.180;2022-12-18T08:31:10;6.70;80.00
36450;DHT22;22475;51.390;7.180;2022-12-18T08:33:38;6.80;80.00
36450;DHT22;22475;51.390;7.180;2022-12-18T08:36:06;6.80;79.90
36450;DHT22;22475;51.390;7.180;2022-12-18T08:38:33;6.80;79.90
36450;DHT22;22475;51.390;7.180;2022-12-18T08:41:00;6.80;79.80
36450;DHT22;22475;51.390;7.180;2022-12-18T08:43:28;6.80;80.50
36450;DHT22;22475;51.390;7.180;2022-12-18T08:46:13;6.90;79.70
36450;DHT22;22475;51.390;7.180;2022-12-18T08:48:40;6.90;79.60
36450;DHT22;22475;51.390;7.180;2022-12-18T08:51:07;6.90;79.50
36450;DHT22;22475;51.390;7.180;2022-12-18T08:53:35;6.90;79.40
36450;DHT22;22475;51.390;7.180;2022-12-18T08:56:01;6.90;79.30
36450;DHT22;22475;51.390;7.180;2022-12-18T08:58:28;6.90;79.30
36450;DHT22;22475;51.390;7.180;2022-12-18T09:00:59;6.90;79.20
36450;DHT22;22475;51.390;7.180;2022-12-18T09:03:28;7.00;79.20
36450;DHT22;22475;51.390;7.180;2022-12-18T09:05:55;7.00;79.10
36450;DHT22;22475;51.390;7.180;2022-12-18T09:08:21;7.00;79.00
36450;DHT22;22475;51.390;7.180;2022-12-18T09:10:49;7.00;79.00
36450;DHT22;22475;51.390;7.180;2022-12-18T09:13:16;7.10;78.80
36450;DHT22;22475;51.390;7.180;2022-12-18T09:15:45;7.10;78.80
36450;DHT22;22475;51.390;7.180;2022-12-18T09:18:12;7.10;78.90
36450;DHT22;22475;51.390;7.180;2022-12-18T09:20:41;7.10;79.30
36450;DHT22;22475;51.390;7.180;2022-12-18T09:23:08;7.10;80.40
36450;DHT22;22475;51.390;7.180;2022-12-18T09:25:36;7.20;79.80
36450;DHT22;22475;51.390;7.180;2022-12-18T09:28:05;7.20;79.90
36450;DHT22;22475;51.390;7.180;2022-12-18T09:30:32;7.20;79.90
36450;DHT22;22475;51.390;7.180;2022-12-18T09:32:59;7.20;79.70
36450;DHT22;22475;51.390;7.180;2022-12-18T09:35:26;7.20;79.60
36450;DHT22;22475;51.390;7.180;2022-12-18T09:37:54;7.30;79.50
36450;DHT22;22475;51.390;7.180;2022-12-18T09:40:23;7.30;79.30
36450;DHT22;22475;51.390;7.180;2022-12-18T09:42:55;7.30;79.10
36450;DHT22;22475;51.390;7.180;2022-12-18T09:45:23;7.30;79.00
36450;DHT22;22475;51.390;7.180;2022-12-18T09:47:51;7.30;78.80
36450;DHT22;22475;51.390;7.180;2022-12-18T09:50:24;7.40;78.90
36450;DHT22;22475;51.390;7.180;2022-12-18T09:52:57;7.40;78.90
36450;DHT22;22475;51.390;7.180;2022-12-18T09:55:28;7.40;78.70
36450;DHT22;22475;51.390;7.180;2022-12-18T09:58:10;7.40;79.30
36450;DHT22;22475;51.390;7.180;2022-12-18T10:00:38;7.40;78.40
36450;DHT22;22475;51.390;7.180;2022-12-18T10:03:10;7.40;78.30
36450;DHT22;22475;51.390;7.180;2022-12-18T10:05:41;7.40;79.10
36450;DHT22;22475;51.390;7.180;2022-12-18T10:08:15;7.50;78.60
36450;DHT22;22475;51.390;7.180;2022-12-18T10:10:48;7.50;78.60
36450;DHT22;22475;51.390;7.180;2022-12-18T10:13:23;7.50;78.60
36450;DHT22;22475;51.390;7.180;2022-12-18T10:16:01;7.50;78.80
36450;DHT22;22475;51.390;7.180;2022-12-18T10:18:50;7.50;79.00
36450;DHT22;22475;51.390;7.180;2022-12-18T10:21:28;7.50;78.80
36450;DHT22;22475;51.390;7.180;2022-12-18T10:24:09;7.50;78.60
36450;DHT22;22475;51.390;7.180;2022-12-18T10:26:41;7.50;78.30
36450;DHT22;22475;51.390;7.180;2022-12-18T10:29:10;7.50;78.20
36450;DHT22;22475;51.390;7.180;2022-12-18T10:31:38;7.50;78.00
36450;DHT22;22475;51.390;7.180;2022-12-18T10:34:09;7.50;77.80
36450;DHT22;22475;51.390;7.180;2022-12-18T10:36:36;7.50;77.50
36450;DHT22;22475;51.390;7.180;2022-12-18T10:39:19;7.50;77.40
36450;DHT22;22475;51.390;7.180;2022-12-18T10:41:47;7.50;77.40
36450;DHT22;22475;51.390;7.180;2022-12-18T10:44:17;7.50;77.40
36450;DHT22;22475;51.390;7.180;2022-12-18T10:46:45;7.50;77.30
36450;DHT22;22475;51.390;7.180;2022-12-18T10:49:22;7.60;77.20
36450;DHT22;22475;51.390;7.180;2022-12-18T10:51:50;7.60;77.10
36450;DHT22;22475;51.390;7.180;2022-12-18T10:54:21;7.60;77.10
36450;DHT22;22475;51.390;7.180;2022-12-18T10:56:49;7.60;76.90
36450;DHT22;22475;51.390;7.180;2022-12-18T10:59:17;7.60;76.80
36450;DHT22;22475;51.390;7.180;2022-12-18T11:01:49;7.60;76.70
36450;DHT22;22475;51.390;7.180;2022-12-18T11:04:19;7.60;76.60
36450;DHT22;22475;51.390;7.180;2022-12-18T11:06:54;7.60;76.60
36450;DHT22;22475;51.390;7.180;2022-12-18T11:09:24;7.60;76.50
36450;DHT22;22475;51.390;7.180;2022-12-18T11:11:52;7.70;76.50
36450;DHT22;22475;51.390;7.180;2022-12-18T11:14:23;7.70;76.40
36450;DHT22;22475;51.390;7.180;2022-12-18T11:16:52;7.70;76.20
36450;DHT22;22475;51.390;7.180;2022-12-18T11:19:24;7.70;76.10
36450;DHT22;22475;51.390;7.180;2022-12-18T11:21:52;7.70;76.10
36450;DHT22;22475;51.390;7.180;2022-12-18T11:24:25;7.70;76.00
36450;DHT22;22475;51.390;7.180;2022-12-18T11:26:53;7.70;75.90
36450;DHT22;22475;51.390;7.180;2022-12-18T11:29:24;7.70;75.90
36450;DHT22;22475;51.390;7.180;2022-12-18T11:32:33;7.70;75.70
36450;DHT22;22475;51.390;7.180;2022-12-18T11:35:04;7.70;75.50
36450;DHT22;22475;51.390;7.180;2022-12-18T11:37:36;7.70;75.60
36450;DHT22;22475;51.390;7.180;2022-12-18T11:40:09;7.70;75.60
36450;DHT22;22475;51.390;7.180;2022-12-18T11:42:42;7.70;75.40
36450;DHT22;22475;51.390;7.180;2022-12-18T11:45:25;7.70;75.20
36450;DHT22;22475;51.390;7.180;2022-12-18T11:47:57;7.70;75.00
36450;DHT22;22475;51.390;7.180;2022-12-18T11:50:28;7.80;75.10
36450;DHT22;22475;51.390;7.180;2022-12-18T11:52:56;7.80;75.00
36450;DHT22;22475;51.390;7.180;2022-12-18T11:55:28;7.80;74.90
36450;DHT22;22475;51.390;7.180;2022-12-18T11:58:05;7.80;74.70
36450;DHT22;22475;51.390;7.180;2022-12-18T12:00:37;7.80;74.60
36450;DHT22;22475;51.390;7.180;2022-12-18T12:03:23;7.80;74.60
36450;DHT22;22475;51.390;7.180;2022-12-18T12:06:01;7.80;74.50
36450;DHT22;22475;51.390;7.180;2022-12-18T12:08:39;7.80;74.50
36450;DHT22;22475;51.390;7.180;2022-12-18T12:11:16;7.80;74.40
36450;DHT22;22475;51.390;7.180;2022-12-18T12:13:55;7.80;74.40
36450;DHT22;22475;51.390;7.180;2022-12-18T12:16:28;7.80;74.40
36450;DHT22;22475;51.390;7.180;2022-12-18T12:19:12;7.80;74.40
36450;DHT22;22475;51.390;7.180;2022-12-18T12:21:44;7.80;74.20
36450;DHT22;22475;51.390;7.180;2022-12-18T12:24:26;7.80;74.20
36450;DHT22;22475;51.390;7.180;2022-12-18T12:27:05;7.80;74.10
36450;DHT22;22475;51.390;7.180;2022-12-18T12:29:46;7.80;74.00
36450;DHT22;22475;51.390;7.180;2022-12-18T12:32:26;7.90;74.10
36450;DHT22;22475;51.390;7.180;2022-12-18T12:35:08;7.90;74.10
36450;DHT22;22475;51.390;7.180;2022-12-18T12:37:40;7.80;74.00
36450;DHT22;22475;51.390;7.180;2022-12-18T12:40:13;7.90;74.00
36450;DHT22;22475;51.390;7.180;2022-12-18T12:42:46;7.90;73.90
36450;DHT22;22475;51.390;7.180;2022-12-18T12:45:36;7.90;73.90
36450;DHT22;22475;51.390;7.180;2022-12-18T12:48:05;7.90;73.90
36450;DHT22;22475;51.390;7.180;2022-12-18T12:50:34;7.90;73.80
36450;DHT22;22475;51.390;7.180;2022-12-18T12:53:06;7.80;73.70
36450;DHT22;22475;51.390;7.180;2022-12-18T12:55:34;7.90;73.80
36450;DHT22;22475;51.390;7.180;2022-12-18T12:58:10;7.90;74.00
36450;DHT22;22475;51.390;7.180;2022-12-18T13:00:46;7.90;74.00
36450;DHT22;22475;51.390;7.180;2022-12-18T13:03:26;7.90;74.30
36450;DHT22;22475;51.390;7.180;2022-12-18T13:06:00;7.90;74.30
36450;DHT22;22475;51.390;7.180;2022-12-18T13:08:31;7.90;74.40
36450;DHT22;22475;51.390;7.180;2022-12-18T13:10:59;7.90;74.30
36450;DHT22;22475;51.390;7.180;2022-12-18T13:13:52;7.90;74.30
36450;DHT22;22475;51.390;7.180;2022-12-18T13:16:20;7.90;74.20
36450;DHT22;22475;51.390;7.180;2022-12-18T13:18:49;7.90;74.20
36450;DHT22;22475;51.390;7.180;2022-12-18T13:21:21;7.90;74.10
36450;DHT22;22475;51.390;7.180;2022-12-18T13:23:50;7.90;74.10
36450;DHT22;22475;51.390;7.180;2022-12-18T13:26:30;7.90;74.20
36450;DHT22;22475;51.390;7.180;2022-12-18T13:29:00;7.90;74.40
36450;DHT22;22475;51.390;7.180;2022-12-18T13:31:58;8.00;74.50
36450;DHT22;22475;51.390;7.180;2022-12-18T13:34:27;8.00;74.50
36450;DHT22;22475;51.390;7.180;2022-12-18T13:36:56;8.00;74.50
36450;DHT22;22475;51.390;7.180;2022-12-18T13:39:31;8.00;74.60
36450;DHT22;22475;51.390;7.180;2022-12-18T13:42:37;8.00;74.60
36450;DHT22;22475;51.390;7.180;2022-12-18T13:45:41;8.00;74.50
36450;DHT22;22475;51.390;7.180;2022-12-18T13:48:20;8.00;74.50
36450;DHT22;22475;51.390;7.180;2022-12-18T13:50:58;8.00;74.50
36450;DHT22;22475;51.390;7.180;2022-12-18T13:53:29;8.00;74.50
36450;DHT22;22475;51.390;7.180;2022-12-18T13:55:57;8.00;74.50
36450;DHT22;22475;51.390;7.180;2022-12-18T13:58:24;8.00;74.60
36450;DHT22;22475;51.390;7.180;2022-12-18T14:00:52;8.00;74.70
36450;DHT22;22475;51.390;7.180;2022-12-18T14:03:21;8.00;74.90
36450;DHT22;22475;51.390;7.180;2022-12-18T14:05:56;8.00;74.90
36450;DHT22;22475;51.390;7.180;2022-12-18T14:08:29;8.00;74.80
36450;DHT22;22475;51.390;7.180;2022-12-18T14:10:57;8.00;74.70
36450;DHT22;22475;51.390;7.180;2022-12-18T14:13:27;8.00;74.60
36450;DHT22;22475;51.390;7.180;2022-12-18T14:15:57;8.00;74.60
36450;DHT22;22475;51.390;7.180;2022-12-18T14:18:34;8.00;74.50
36450;DHT22;22475;51.390;7.180;2022-12-18T14:21:04;8.00;74.50
36450;DHT22;22475;51.390;7.180;2022-12-18T14:23:33;8.00;74.60
36450;DHT22;22475;51.390;7.180;2022-12-18T14:26:01;8.00;74.50
36450;DHT22;22475;51.390;7.180;2022-12-18T14:28:29;8.00;74.60
36450;DHT22;22475;51.390;7.180;2022-12-18T14:30:57;8.00;74.60
36450;DHT22;22475;51.390;7.180;2022-12-18T14:33:25;8.00;74.60
36450;DHT22;22475;51.390;7.180;2022-12-18T14:35:58;8.00;74.60
36450;DHT22;22475;51.390;7.180;2022-12-18T14:38:28;8.00;74.60
36450;DHT22;22475;51.390;7.180;2022-12-18T14:40:57;7.90;74.50
36450;DHT22;22475;51.390;7.180;2022-12-18T14:43:24;7.90;74.60
36450;DHT22;22475;51.390;7.180;2022-12-18T14:45:52;7.90;74.60
36450;DHT22;22475;51.390;7.180;2022-12-18T14:48:22;7.90;74.60
36450;DHT22;22475;51.390;7.180;2022-12-18T14:50:58;8.00;74.90
36450;DHT22;22475;51.390;7.180;2022-12-18T14:53:33;8.00;75.00
36450;DHT22;22475;51.390;7.180;2022-12-18T14:56:01;8.00;74.90
36450;DHT22;22475;51.390;7.180;2022-12-18T14:58:28;8.00;74.80
36450;DHT22;22475;51.390;7.180;2022-12-18T15:00:55;8.00;74.70
36450;DHT22;22475;51.390;7.180;2022-12-18T15:03:23;8.00;74.70
36450;DHT22;22475;51.390;7.180;2022-12-18T15:05:51;8.00;75.40
36450;DHT22;22475;51.390;7.180;2022-12-18T15:08:30;8.00;74.60
36450;DHT22;22475;51.390;7.180;2022-12-18T15:10:57;8.00;74.50
36450;DHT22;22475;51.390;7.180;2022-12-18T15:13:24;8.00;74.50
36450;DHT22;22475;51.390;7.180;2022-12-18T15:15:52;8.00;74.40
36450;DHT22;22475;51.390;7.180;2022-12-18T15:18:21;7.90;74.30
36450;DHT22;22475;51.390;7.180;2022-12-18T15:20:52;7.90;74.30
36450;DHT22;22475;51.390;7.180;2022-12-18T15:23:21;7.90;74.30
36450;DHT22;22475;51.390;7.180;2022-12-18T15:25:55;8.00;74.40
36450;DHT22;22475;51.390;7.180;2022-12-18T15:28:25;8.00;75.10
36450;DHT22;22475;51.390;7.180;2022-12-18T15:31:02;7.90;74.30
36450;DHT22;22475;51.390;7.180;2022-12-18T15:33:31;8.00;74.30
36450;DHT22;22475;51.390;7.180;2022-12-18T15:36:03;8.00;74.30
36450;DHT22;22475;51.390;7.180;2022-12-18T15:38:30;7.90;74.20
36450;DHT22;22475;51.390;7.180;2022-12-18T15:40:57;7.90;74.30
36450;DHT22;22475;51.390;7.180;2022-12-18T15:43:25;7.90;75.20
36450;DHT22;22475;51.390;7.180;2022-12-18T15:46:00;7.90;74.50
36450;DHT22;22475;51.390;7.180;2022-12-18T15:48:27;7.90;74.40
36450;DHT22;22475;51.390;7.180;2022-12-18T15:50:56;7.90;75.20
36450;DHT22;22475;51.390;7.180;2022-12-18T15:53:27;7.90;74.40
36450;DHT22;22475;51.390;7.180;2022-12-18T15:55:55;8.00;74.60
36450;DHT22;22475;51.390;7.180;2022-12-18T15:58:39;7.90;74.60
36450;DHT22;22475;51.390;7.180;2022-12-18T16:01:08;8.00;74.80
36450;DHT22;22475;51.390;7.180;2022-12-18T16:03:35;7.90;74.80
36450;DHT22;22475;51.390;7.180;2022-12-18T16:06:02;7.90;74.80